sensor_id;sensor_type;location;lat;lon;timestamp;P1;durP1;ratioP1;P2;durP2;ratioP2
10645;SDS011;5371;49.782;9.932;2023-02-18T00:00:17;8.40;;;7.60;;
10645;SDS011;5371;49.782;9.932;2023-02-18T00:02:46;8.07;;;7.28;;
10645;SDS011;5371;49.782;9.932;2023-02-18T00:05:13;8.13;;;7.32;;
10645;SDS011;5371;49.782;9.932;2023-02-18T00:07:41;9.63;;;7.93;;
10645;SDS011;5371;49.782;9.932;2023-02-18T00:10:12;8.45;;;7.05;;
10645;SDS011;5371;49.782;9.932;2023-02-18T00:12:40;7.82;;;7.05;;
10645;SDS011;5371;49.782;9.932;2023-02-18T00:15:08;8.68;;;7.10;;
10645;SDS011;5371;49.782;9.932;2023-02-18T00:17:36;8.45;;;7.57;;
10645;SDS011;5371;49.782;9.932;2023-02-18T00:20:03;8.18;;;7.38;;
10645;SDS011;5371;49.782;9.932;2023-02-18T00:22:31;7.60;;;6.90;;
10645;SDS011;5371;49.782;9.932;2023-02-18T00:24:58;8.38;;;7.57;;
10645;SDS011;5371;49.782;9.932;2023-02-18T00:27:26;8.45;;;7.63;;
10645;SDS011;5371;49.782;9.932;2023-02-18T00:29:54;8.50;;;7.68;;
10645;SDS011;5371;49.782;9.932;2023-02-18T00:32:21;8.32;;;7.25;;
10645;SDS011;5371;49.782;9.932;2023-02-18T00:34:48;8.80;;;7.20;;
10645;SDS011;5371;49.782;9.932;2023-02-18T00:37:15;8.00;;;7.20;;
10645;SDS011;5371;49.782;9.932;2023-02-18T00:39:42;7.65;;;6.85;;
10645;SDS011;5371;49.782;9.932;2023-02-18T00:42:09;8.05;;;7.25;;
10645;SDS011;5371;49.782;9.932;2023-02-18T00:44:38;7.75;;;7.05;;
10645;SDS011;5371;49.782;9.932;2023-02-18T00:47:05;7.93;;;7.13;;
10645;SDS011;5371;49.782;9.932;2023-02-18T00:49:32;6.95;;;6.25;;
10645;SDS011;5371;49.782;9.932;2023-02-18T00:52:02;7.10;;;6.40;;
10645;SDS011;5371;49.782;9.932;2023-02-18T00:54:29;6.97;;;6.28;;
10645;SDS011;5371;49.782;9.932;2023-02-18T00:56:57;7.87;;;7.00;;
10645;SDS011;5371;49.782;9.932;2023-02-18T00:59:25;7.50;;;6.47;;
10645;SDS011;5371;49.782;9.932;2023-02-18T01:01:53;7.78;;;6.93;;
10645;SDS011;5371;49.782;9.932;2023-02-18T01:04:20;8.82;;;7.18;;
10645;SDS011;5371;49.782;9.932;2023-02-18T01:06:48;8.88;;;7.97;;
10645;SDS011;5371;49.782;9.932;2023-02-18T01:09:15;8.30;;;7.50;;
10645;SDS011;5371;49.782;9.932;2023-02-18T01:11:43;8.20;;;7.27;;
10645;SDS011;5371;49.782;9.932;2023-02-18T01:14:10;8.50;;;7.23;;
10645;SDS011;5371;49.782;9.932;2023-02-18T01:16:37;8.57;;;7.70;;
10645;SDS011;5371;49.782;9.932;2023-02-18T01:19:08;7.97;;;6.95;;
10645;SDS011;5371;49.782;9.932;2023-02-18T01:21:37;7.70;;;6.88;;
10645;SDS011;5371;49.782;9.932;2023-02-18T01:24:04;7.43;;;6.63;;
10645;SDS011;5371;49.782;9.932;2023-02-18T01:26:32;8.15;;;7.20;;
10645;SDS011;5371;49.782;9.932;2023-02-18T01:28:59;8.33;;;7.07;;
10645;SDS011;5371;49.782;9.932;2023-02-18T01:31:26;7.97;;;7.18;;
10645;SDS011;5371;49.782;9.932;2023-02-18T01:33:53;7.53;;;6.72;;
10645;SDS011;5371;49.782;9.932;2023-02-18T01:36:21;9.18;;;6.93;;
10645;SDS011;5371;49.782;9.932;2023-02-18T01:38:48;6.25;;;5.65;;
10645;SDS011;5371;49.782;9.932;2023-02-18T01:41:15;6.35;;;5.75;;
10645;SDS011;5371;49.782;9.932;2023-02-18T01:43:42;6.50;;;5.68;;
10645;SDS011;5371;49.782;9.932;2023-02-18T01:46:13;5.80;;;5.18;;
10645;SDS011;5371;49.782;9.932;2023-02-18T01:48:45;6.88;;;5.57;;
10645;SDS011;5371;49.782;9.932;2023-02-18T01:51:17;6.18;;;5.43;;
10645;SDS011;5371;49.782;9.932;2023-02-18T01:53:50;6.53;;;4.90;;
10645;SDS011;5371;49.782;9.932;2023-02-18T01:56:23;5.72;;;5.13;;
10645;SDS011;5371;49.782;9.932;2023-02-18T01:58:54;6.15;;;5.05;;
10645;SDS011;5371;49.782;9.932;2023-02-18T02:01:25;5.77;;;5.03;;
10645;SDS011;5371;49.782;9.932;2023-02-18T02:03:53;5.60;;;4.90;;
10645;SDS011;5371;49.782;9.932;2023-02-18T02:06:20;6.43;;;5.20;;
10645;SDS011;5371;49.782;9.932;2023-02-18T02:08:51;5.40;;;4.85;;
10645;SDS011;5371;49.782;9.932;2023-02-18T02:11:27;6.40;;;5.57;;
10645;SDS011;5371;49.782;9.932;2023-02-18T02:14:29;5.82;;;5.22;;
10645;SDS011;5371;49.782;9.932;2023-02-18T02:17:09;5.07;;;4.57;;
10645;SDS011;5371;49.782;9.932;2023-02-18T02:20:05;5.65;;;5.10;;
10645;SDS011;5371;49.782;9.932;2023-02-18T02:32:34;5.30;;;4.80;;
10645;SDS011;5371;49.782;9.932;2023-02-18T02:35:28;5.40;;;4.90;;
10645;SDS011;5371;49.782;9.932;2023-02-18T02:37:58;5.00;;;4.50;;
10645;SDS011;5371;49.782;9.932;2023-02-18T02:40:32;5.25;;;4.30;;
10645;SDS011;5371;49.782;9.932;2023-02-18T02:43:10;5.43;;;4.85;;
10645;SDS011;5371;49.782;9.932;2023-02-18T02:45:47;5.13;;;4.60;;
10645;SDS011;5371;49.782;9.932;2023-02-18T02:48:23;5.30;;;4.80;;
10645;SDS011;5371;49.782;9.932;2023-02-18T02:50:58;4.87;;;4.30;;
10645;SDS011;5371;49.782;9.932;2023-02-18T02:53:34;4.70;;;4.20;;
10645;SDS011;5371;49.782;9.932;2023-02-18T02:56:02;4.45;;;3.92;;
10645;SDS011;5371;49.782;9.932;2023-02-18T02:58:30;4.10;;;3.67;;
10645;SDS011;5371;49.782;9.932;2023-02-18T03:01:03;4.15;;;3.75;;
10645;SDS011;5371;49.782;9.932;2023-02-18T03:03:50;4.27;;;3.73;;
10645;SDS011;5371;49.782;9.932;2023-02-18T03:06:39;4.28;;;3.80;;
10645;SDS011;5371;49.782;9.932;2023-02-18T03:09:16;4.38;;;3.97;;
10645;SDS011;5371;49.782;9.932;2023-02-18T03:11:51;4.90;;;3.40;;
10645;SDS011;5371;49.782;9.932;2023-02-18T03:14:26;3.90;;;3.57;;
10645;SDS011;5371;49.782;9.932;2023-02-18T03:16:57;4.18;;;3.78;;
10645;SDS011;5371;49.782;9.932;2023-02-18T03:19:29;4.18;;;3.78;;
10645;SDS011;5371;49.782;9.932;2023-02-18T03:22:02;3.92;;;3.42;;
10645;SDS011;5371;49.782;9.932;2023-02-18T03:24:38;5.45;;;3.67;;
10645;SDS011;5371;49.782;9.932;2023-02-18T03:27:08;4.03;;;3.50;;
10645;SDS011;5371;49.782;9.932;2023-02-18T03:29:39;4.30;;;3.60;;
10645;SDS011;5371;49.782;9.932;2023-02-18T03:32:10;4.10;;;3.53;;
10645;SDS011;5371;49.782;9.932;2023-02-18T03:34:41;4.32;;;3.80;;
10645;SDS011;5371;49.782;9.932;2023-02-18T03:37:14;4.00;;;3.55;;
10645;SDS011;5371;49.782;9.932;2023-02-18T03:39:43;5.15;;;4.15;;
10645;SDS011;5371;49.782;9.932;2023-02-18T03:42:14;4.83;;;3.70;;
10645;SDS011;5371;49.782;9.932;2023-02-18T03:44:43;4.72;;;4.15;;
10645;SDS011;5371;49.782;9.932;2023-02-18T03:47:10;4.20;;;3.77;;
10645;SDS011;5371;49.782;9.932;2023-02-18T03:49:38;4.82;;;4.10;;
10645;SDS011;5371;49.782;9.932;2023-02-18T03:52:05;4.33;;;3.93;;
10645;SDS011;5371;49.782;9.932;2023-02-18T03:54:34;4.47;;;4.07;;
10645;SDS011;5371;49.782;9.932;2023-02-18T03:57:02;5.43;;;4.10;;
10645;SDS011;5371;49.782;9.932;2023-02-18T03:59:29;4.45;;;3.83;;
10645;SDS011;5371;49.782;9.932;2023-02-18T04:01:56;5.30;;;3.80;;
10645;SDS011;5371;49.782;9.932;2023-02-18T04:04:22;4.17;;;3.77;;
10645;SDS011;5371;49.782;9.932;2023-02-18T04:06:49;4.63;;;3.97;;
10645;SDS011;5371;49.782;9.932;2023-02-18T04:09:16;4.23;;;3.67;;
10645;SDS011;5371;49.782;9.932;2023-02-18T04:11:44;3.90;;;3.50;;
10645;SDS011;5371;49.782;9.932;2023-02-18T04:14:12;3.90;;;3.50;;
10645;SDS011;5371;49.782;9.932;2023-02-18T04:16:42;3.95;;;3.33;;
10645;SDS011;5371;49.782;9.932;2023-02-18T04:19:09;5.38;;;3.60;;
10645;SDS011;5371;49.782;9.932;2023-02-18T04:21:36;3.90;;;3.50;;
10645;SDS011;5371;49.782;9.932;2023-02-18T04:24:03;4.35;;;3.95;;
10645;SDS011;5371;49.782;9.932;2023-02-18T04:26:30;4.30;;;3.60;;
10645;SDS011;5371;49.782;9.932;2023-02-18T04:28:59;4.85;;;3.97;;
10645;SDS011;5371;49.782;9.932;2023-02-18T04:31:25;4.43;;;4.03;;
10645;SDS011;5371;49.782;9.932;2023-02-18T04:33:52;4.40;;;4.00;;
10645;SDS011;5371;49.782;9.932;2023-02-18T04:36:19;5.53;;;4.50;;
10645;SDS011;5371;49.782;9.932;2023-02-18T04:38:46;4.63;;;4.07;;
10645;SDS011;5371;49.782;9.932;2023-02-18T04:41:13;4.75;;;4.18;;
10645;SDS011;5371;49.782;9.932;2023-02-18T04:43:40;5.00;;;4.50;;
10645;SDS011;5371;49.782;9.932;2023-02-18T04:46:09;4.63;;;4.05;;
10645;SDS011;5371;49.782;9.932;2023-02-18T04:48:36;4.97;;;3.92;;
10645;SDS011;5371;49.782;9.932;2023-02-18T04:51:03;5.32;;;4.43;;
10645;SDS011;5371;49.782;9.932;2023-02-18T04:53:30;5.30;;;4.53;;
10645;SDS011;5371;49.782;9.932;2023-02-18T04:55:57;5.05;;;4.55;;
10645;SDS011;5371;49.782;9.932;2023-02-18T04:58:24;6.45;;;4.72;;
10645;SDS011;5371;49.782;9.932;2023-02-18T05:00:51;6.85;;;4.50;;
10645;SDS011;5371;49.782;9.932;2023-02-18T05:03:20;5.25;;;4.70;;
10645;SDS011;5371;49.782;9.932;2023-02-18T05:05:47;6.78;;;5.38;;
10645;SDS011;5371;49.782;9.932;2023-02-18T05:08:14;6.43;;;5.40;;
10645;SDS011;5371;49.782;9.932;2023-02-18T05:10:41;5.97;;;4.80;;
10645;SDS011;5371;49.782;9.932;2023-02-18T05:13:08;6.43;;;5.20;;
10645;SDS011;5371;49.782;9.932;2023-02-18T05:15:35;5.80;;;4.90;;
10645;SDS011;5371;49.782;9.932;2023-02-18T05:18:01;6.20;;;5.30;;
10645;SDS011;5371;49.782;9.932;2023-02-18T05:20:30;6.77;;;5.03;;
10645;SDS011;5371;49.782;9.932;2023-02-18T05:22:57;5.73;;;4.80;;
10645;SDS011;5371;49.782;9.932;2023-02-18T05:25:24;6.57;;;5.33;;
10645;SDS011;5371;49.782;9.932;2023-02-18T05:27:51;5.60;;;4.70;;
10645;SDS011;5371;49.782;9.932;2023-02-18T05:30:18;5.40;;;4.30;;
10645;SDS011;5371;49.782;9.932;2023-02-18T05:32:45;5.80;;;4.67;;
10645;SDS011;5371;49.782;9.932;2023-02-18T05:35:12;4.73;;;4.17;;
10645;SDS011;5371;49.782;9.932;2023-02-18T05:37:40;4.90;;;4.07;;
10645;SDS011;5371;49.782;9.932;2023-02-18T05:40:07;5.93;;;4.70;;
10645;SDS011;5371;49.782;9.932;2023-02-18T05:42:36;6.13;;;4.87;;
10645;SDS011;5371;49.782;9.932;2023-02-18T05:45:03;5.70;;;5.03;;
10645;SDS011;5371;49.782;9.932;2023-02-18T05:47:30;5.63;;;4.80;;
10645;SDS011;5371;49.782;9.932;2023-02-18T05:49:57;5.43;;;4.90;;
10645;SDS011;5371;49.782;9.932;2023-02-18T05:52:24;5.40;;;4.67;;
10645;SDS011;5371;49.782;9.932;2023-02-18T05:54:53;5.27;;;4.73;;
10645;SDS011;5371;49.782;9.932;2023-02-18T05:57:20;5.85;;;5.10;;
10645;SDS011;5371;49.782;9.932;2023-02-18T05:59:47;5.87;;;5.27;;
10645;SDS011;5371;49.782;9.932;2023-02-18T06:02:14;5.50;;;4.90;;
10645;SDS011;5371;49.782;9.932;2023-02-18T06:04:41;5.45;;;4.55;;
10645;SDS011;5371;49.782;9.932;2023-02-18T06:07:09;6.67;;;4.30;;
10645;SDS011;5371;49.782;9.932;2023-02-18T06:09:36;6.70;;;5.05;;
10645;SDS011;5371;49.782;9.932;2023-02-18T06:12:05;6.57;;;5.37;;
10645;SDS011;5371;49.782;9.932;2023-02-18T06:14:32;6.70;;;5.47;;
10645;SDS011;5371;49.782;9.932;2023-02-18T06:16:59;6.47;;;5.80;;
10645;SDS011;5371;49.782;9.932;2023-02-18T06:19:26;8.33;;;6.10;;
10645;SDS011;5371;49.782;9.932;2023-02-18T06:21:53;8.30;;;5.93;;
10645;SDS011;5371;49.782;9.932;2023-02-18T06:24:20;7.37;;;5.90;;
10645;SDS011;5371;49.782;9.932;2023-02-18T06:26:47;7.23;;;6.10;;
10645;SDS011;5371;49.782;9.932;2023-02-18T06:29:15;7.90;;;6.37;;
10645;SDS011;5371;49.782;9.932;2023-02-18T06:31:42;6.67;;;5.97;;
10645;SDS011;5371;49.782;9.932;2023-02-18T06:34:09;7.77;;;6.10;;
10645;SDS011;5371;49.782;9.932;2023-02-18T06:36:36;6.93;;;6.07;;
10645;SDS011;5371;49.782;9.932;2023-02-18T06:39:03;7.23;;;6.47;;
10645;SDS011;5371;49.782;9.932;2023-02-18T06:41:31;8.37;;;6.03;;
10645;SDS011;5371;49.782;9.932;2023-02-18T06:43:58;7.70;;;6.43;;
10645;SDS011;5371;49.782;9.932;2023-02-18T06:46:26;7.50;;;6.57;;
10645;SDS011;5371;49.782;9.932;2023-02-18T06:48:53;7.03;;;5.93;;
10645;SDS011;5371;49.782;9.932;2023-02-18T06:51:20;7.17;;;6.13;;
10645;SDS011;5371;49.782;9.932;2023-02-18T06:53:47;7.80;;;6.97;;
10645;SDS011;5371;49.782;9.932;2023-02-18T06:56:14;7.80;;;6.95;;
10645;SDS011;5371;49.782;9.932;2023-02-18T06:58:41;8.50;;;6.70;;
10645;SDS011;5371;49.782;9.932;2023-02-18T07:01:08;9.00;;;7.65;;
10645;SDS011;5371;49.782;9.932;2023-02-18T07:03:36;7.93;;;6.97;;
10645;SDS011;5371;49.782;9.932;2023-02-18T07:06:03;8.20;;;7.30;;
10645;SDS011;5371;49.782;9.932;2023-02-18T07:08:30;8.67;;;7.43;;
10645;SDS011;5371;49.782;9.932;2023-02-18T07:11:00;10.37;;;7.47;;
10645;SDS011;5371;49.782;9.932;2023-02-18T07:13:27;10.95;;;7.82;;
10645;SDS011;5371;49.782;9.932;2023-02-18T07:15:54;9.00;;;7.73;;
10645;SDS011;5371;49.782;9.932;2023-02-18T07:18:21;9.37;;;8.03;;
10645;SDS011;5371;49.782;9.932;2023-02-18T07:20:49;8.60;;;7.70;;
10645;SDS011;5371;49.782;9.932;2023-02-18T07:23:16;11.88;;;7.72;;
10645;SDS011;5371;49.782;9.932;2023-02-18T07:25:43;8.77;;;7.85;;
10645;SDS011;5371;49.782;9.932;2023-02-18T07:28:10;9.20;;;7.78;;
10645;SDS011;5371;49.782;9.932;2023-02-18T07:30:37;9.82;;;7.72;;
10645;SDS011;5371;49.782;9.932;2023-02-18T07:33:05;9.25;;;7.55;;
10645;SDS011;5371;49.782;9.932;2023-02-18T07:35:32;8.27;;;7.40;;
10645;SDS011;5371;49.782;9.932;2023-02-18T07:38:00;8.80;;;7.67;;
10645;SDS011;5371;49.782;9.932;2023-02-18T07:40:28;8.35;;;7.22;;
10645;SDS011;5371;49.782;9.932;2023-02-18T07:42:55;8.48;;;7.57;;
10645;SDS011;5371;49.782;9.932;2023-02-18T07:45:22;11.40;;;7.53;;
10645;SDS011;5371;49.782;9.932;2023-02-18T07:47:48;8.45;;;7.40;;
10645;SDS011;5371;49.782;9.932;2023-02-18T07:50:15;9.17;;;7.33;;
10645;SDS011;5371;49.782;9.932;2023-02-18T07:52:43;11.07;;;7.60;;
10645;SDS011;5371;49.782;9.932;2023-02-18T07:55:11;8.65;;;6.90;;
10645;SDS011;5371;49.782;9.932;2023-02-18T07:57:38;8.73;;;7.30;;
10645;SDS011;5371;49.782;9.932;2023-02-18T08:00:19;8.52;;;7.40;;
10645;SDS011;5371;49.782;9.932;2023-02-18T08:02:46;7.78;;;6.97;;
10645;SDS011;5371;49.782;9.932;2023-02-18T08:05:13;10.80;;;7.40;;
10645;SDS011;5371;49.782;9.932;2023-02-18T08:07:43;7.90;;;7.07;;
10645;SDS011;5371;49.782;9.932;2023-02-18T08:10:12;8.77;;;7.33;;
10645;SDS011;5371;49.782;9.932;2023-02-18T08:12:39;8.95;;;7.85;;
10645;SDS011;5371;49.782;9.932;2023-02-18T08:15:06;9.98;;;7.50;;
10645;SDS011;5371;49.782;9.932;2023-02-18T08:17:34;8.80;;;6.95;;
10645;SDS011;5371;49.782;9.932;2023-02-18T08:20:01;8.13;;;7.28;;
10645;SDS011;5371;49.782;9.932;2023-02-18T08:22:28;8.70;;;7.80;;
10645;SDS011;5371;49.782;9.932;2023-02-18T08:24:55;7.72;;;6.93;;
10645;SDS011;5371;49.782;9.932;2023-02-18T08:27:24;7.57;;;6.78;;
10645;SDS011;5371;49.782;9.932;2023-02-18T08:29:51;8.68;;;7.30;;
10645;SDS011;5371;49.782;9.932;2023-02-18T08:32:18;8.13;;;7.32;;
10645;SDS011;5371;49.782;9.932;2023-02-18T08:34:45;7.72;;;6.68;;
10645;SDS011;5371;49.782;9.932;2023-02-18T08:37:12;10.02;;;7.20;;
10645;SDS011;5371;49.782;9.932;2023-02-18T08:39:39;7.97;;;6.70;;
10645;SDS011;5371;49.782;9.932;2023-02-18T08:42:06;8.93;;;7.53;;
10645;SDS011;5371;49.782;9.932;2023-02-18T08:44:34;9.73;;;7.00;;
10645;SDS011;5371;49.782;9.932;2023-02-18T08:47:01;8.18;;;7.20;;
10645;SDS011;5371;49.782;9.932;2023-02-18T08:49:28;8.02;;;6.70;;
10645;SDS011;5371;49.782;9.932;2023-02-18T08:51:56;7.93;;;6.78;;
10645;SDS011;5371;49.782;9.932;2023-02-18T08:54:23;7.82;;;6.78;;
10645;SDS011;5371;49.782;9.932;2023-02-18T08:56:52;9.00;;;7.20;;
10645;SDS011;5371;49.782;9.932;2023-02-18T08:59:20;7.82;;;6.72;;
10645;SDS011;5371;49.782;9.932;2023-02-18T09:01:48;8.23;;;6.70;;
10645;SDS011;5371;49.782;9.932;2023-02-18T09:04:15;8.60;;;7.45;;
10645;SDS011;5371;49.782;9.932;2023-02-18T09:06:46;9.07;;;7.65;;
10645;SDS011;5371;49.782;9.932;2023-02-18T09:09:14;9.55;;;7.30;;
10645;SDS011;5371;49.782;9.932;2023-02-18T09:11:42;8.02;;;7.05;;
10645;SDS011;5371;49.782;9.932;2023-02-18T09:14:09;9.38;;;7.55;;
10645;SDS011;5371;49.782;9.932;2023-02-18T09:16:37;7.90;;;7.10;;
10645;SDS011;5371;49.782;9.932;2023-02-18T09:19:06;8.65;;;7.50;;
10645;SDS011;5371;49.782;9.932;2023-02-18T09:21:33;9.05;;;7.78;;
10645;SDS011;5371;49.782;9.932;2023-02-18T09:24:00;8.00;;;6.93;;
10645;SDS011;5371;49.782;9.932;2023-02-18T09:26:27;10.75;;;7.93;;
10645;SDS011;5371;49.782;9.932;2023-02-18T09:28:55;10.65;;;8.02;;
10645;SDS011;5371;49.782;9.932;2023-02-18T09:31:23;8.55;;;7.63;;
10645;SDS011;5371;49.782;9.932;2023-02-18T09:33:52;9.25;;;8.02;;
10645;SDS011;5371;49.782;9.932;2023-02-18T09:36:22;9.52;;;7.53;;
10645;SDS011;5371;49.782;9.932;2023-02-18T09:38:49;9.45;;;7.80;;
10645;SDS011;5371;49.782;9.932;2023-02-18T09:41:19;8.98;;;7.75;;
10645;SDS011;5371;49.782;9.932;2023-02-18T09:43:53;9.43;;;7.78;;
10645;SDS011;5371;49.782;9.932;2023-02-18T09:46:23;8.40;;;6.90;;
10645;SDS011;5371;49.782;9.932;2023-02-18T09:48:54;9.65;;;6.80;;
10645;SDS011;5371;49.782;9.932;2023-02-18T09:51:23;8.23;;;6.72;;
10645;SDS011;5371;49.782;9.932;2023-02-18T09:53:50;8.27;;;6.25;;
10645;SDS011;5371;49.782;9.932;2023-02-18T09:56:19;7.13;;;6.32;;
10645;SDS011;5371;49.782;9.932;2023-02-18T09:58:49;7.43;;;5.82;;
10645;SDS011;5371;49.782;9.932;2023-02-18T10:01:19;7.43;;;5.82;;
10645;SDS011;5371;49.782;9.932;2023-02-18T10:03:50;6.53;;;5.82;;
10645;SDS011;5371;49.782;9.932;2023-02-18T10:06:19;6.78;;;5.65;;
10645;SDS011;5371;49.782;9.932;2023-02-18T10:08:53;6.72;;;5.93;;
10645;SDS011;5371;49.782;9.932;2023-02-18T10:11:22;7.93;;;5.75;;
10645;SDS011;5371;49.782;9.932;2023-02-18T10:13:54;6.63;;;5.80;;
10645;SDS011;5371;49.782;9.932;2023-02-18T10:16:22;6.30;;;5.70;;
10645;SDS011;5371;49.782;9.932;2023-02-18T10:18:52;6.80;;;6.00;;
10645;SDS011;5371;49.782;9.932;2023-02-18T10:21:23;6.63;;;5.90;;
10645;SDS011;5371;49.782;9.932;2023-02-18T10:23:56;8.07;;;5.85;;
10645;SDS011;5371;49.782;9.932;2023-02-18T10:26:27;8.40;;;6.18;;
10645;SDS011;5371;49.782;9.932;2023-02-18T10:28:56;6.90;;;6.20;;
10645;SDS011;5371;49.782;9.932;2023-02-18T10:31:26;7.03;;;5.15;;
10645;SDS011;5371;49.782;9.932;2023-02-18T10:33:58;6.50;;;5.82;;
10645;SDS011;5371;49.782;9.932;2023-02-18T10:36:33;7.38;;;6.43;;
10645;SDS011;5371;49.782;9.932;2023-02-18T10:39:22;6.72;;;5.22;;
10645;SDS011;5371;49.782;9.932;2023-02-18T10:42:07;8.38;;;6.55;;
10645;SDS011;5371;49.782;9.932;2023-02-18T10:44:46;8.15;;;6.68;;
10645;SDS011;5371;49.782;9.932;2023-02-18T10:47:22;8.48;;;6.47;;
10645;SDS011;5371;49.782;9.932;2023-02-18T10:50:00;7.10;;;5.93;;
10645;SDS011;5371;49.782;9.932;2023-02-18T10:52:34;7.45;;;6.00;;
10645;SDS011;5371;49.782;9.932;2023-02-18T10:55:09;7.55;;;6.53;;
10645;SDS011;5371;49.782;9.932;2023-02-18T10:57:44;8.10;;;6.03;;
10645;SDS011;5371;49.782;9.932;2023-02-18T11:00:16;7.60;;;6.32;;
10645;SDS011;5371;49.782;9.932;2023-02-18T11:02:59;7.53;;;6.53;;
10645;SDS011;5371;49.782;9.932;2023-02-18T11:05:35;7.55;;;6.60;;
10645;SDS011;5371;49.782;9.932;2023-02-18T11:08:05;8.93;;;6.25;;
10645;SDS011;5371;49.782;9.932;2023-02-18T11:10:38;8.18;;;6.30;;
10645;SDS011;5371;49.782;9.932;2023-02-18T11:13:08;7.82;;;6.60;;
10645;SDS011;5371;49.782;9.932;2023-02-18T11:15:38;9.77;;;6.55;;
10645;SDS011;5371;49.782;9.932;2023-02-18T11:18:25;5.25;;;4.32;;
10645;SDS011;5371;49.782;9.932;2023-02-18T11:20:57;8.02;;;6.32;;
10645;SDS011;5371;49.782;9.932;2023-02-18T11:23:26;7.32;;;6.20;;
10645;SDS011;5371;49.782;9.932;2023-02-18T11:26:02;9.98;;;6.75;;
10645;SDS011;5371;49.782;9.932;2023-02-18T11:28:35;8.95;;;7.00;;
10645;SDS011;5371;49.782;9.932;2023-02-18T11:31:08;7.93;;;6.40;;
10645;SDS011;5371;49.782;9.932;2023-02-18T11:33:41;7.38;;;6.45;;
10645;SDS011;5371;49.782;9.932;2023-02-18T11:36:15;7.43;;;6.53;;
10645;SDS011;5371;49.782;9.932;2023-02-18T11:38:46;9.23;;;6.68;;
10645;SDS011;5371;49.782;9.932;2023-02-18T11:41:17;8.43;;;7.35;;
10645;SDS011;5371;49.782;9.932;2023-02-18T11:43:49;6.97;;;6.10;;
10645;SDS011;5371;49.782;9.932;2023-02-18T11:46:18;7.45;;;6.47;;
10645;SDS011;5371;49.782;9.932;2023-02-18T11:48:47;8.38;;;6.30;;
10645;SDS011;5371;49.782;9.932;2023-02-18T11:51:16;9.95;;;6.38;;
10645;SDS011;5371;49.782;9.932;2023-02-18T11:53:55;7.65;;;5.90;;
10645;SDS011;5371;49.782;9.932;2023-02-18T11:56:29;8.68;;;6.05;;
10645;SDS011;5371;49.782;9.932;2023-02-18T11:58:59;8.10;;;6.10;;
10645;SDS011;5371;49.782;9.932;2023-02-18T12:01:29;9.00;;;5.72;;
10645;SDS011;5371;49.782;9.932;2023-02-18T12:04:05;6.38;;;5.38;;
10645;SDS011;5371;49.782;9.932;2023-02-18T12:06:38;8.05;;;5.50;;
10645;SDS011;5371;49.782;9.932;2023-02-18T12:09:14;8.77;;;6.00;;
10645;SDS011;5371;49.782;9.932;2023-02-18T12:11:48;8.90;;;5.20;;
10645;SDS011;5371;49.782;9.932;2023-02-18T12:14:18;6.22;;;5.40;;
10645;SDS011;5371;49.782;9.932;2023-02-18T12:16:51;6.43;;;5.47;;
10645;SDS011;5371;49.782;9.932;2023-02-18T12:19:47;6.85;;;5.30;;
10645;SDS011;5371;49.782;9.932;2023-02-18T12:22:25;5.43;;;4.93;;
10645;SDS011;5371;49.782;9.932;2023-02-18T12:25:12;8.38;;;5.00;;
10645;SDS011;5371;49.782;9.932;2023-02-18T12:28:04;5.57;;;4.85;;
10645;SDS011;5371;49.782;9.932;2023-02-18T12:30:47;5.40;;;4.50;;
10645;SDS011;5371;49.782;9.932;2023-02-18T12:33:32;5.05;;;3.80;;
10645;SDS011;5371;49.782;9.932;2023-02-18T12:36:12;6.78;;;4.60;;
10645;SDS011;5371;49.782;9.932;2023-02-18T12:41:57;5.78;;;4.88;;
10645;SDS011;5371;49.782;9.932;2023-02-18T12:44:38;5.03;;;4.40;;
10645;SDS011;5371;49.782;9.932;2023-02-18T12:47:17;5.38;;;4.28;;
10645;SDS011;5371;49.782;9.932;2023-02-18T12:50:08;5.20;;;4.50;;
10645;SDS011;5371;49.782;9.932;2023-02-18T12:53:10;5.72;;;4.03;;
10645;SDS011;5371;49.782;9.932;2023-02-18T12:55:54;5.32;;;4.30;;
10645;SDS011;5371;49.782;9.932;2023-02-18T12:58:34;5.40;;;4.40;;
10645;SDS011;5371;49.782;9.932;2023-02-18T13:01:23;5.22;;;4.20;;
10645;SDS011;5371;49.782;9.932;2023-02-18T13:04:11;6.93;;;4.15;;
10645;SDS011;5371;49.782;9.932;2023-02-18T13:10:07;4.07;;;3.67;;
10645;SDS011;5371;49.782;9.932;2023-02-18T13:12:47;5.38;;;4.20;;
10645;SDS011;5371;49.782;9.932;2023-02-18T13:15:22;4.85;;;3.90;;
10645;SDS011;5371;49.782;9.932;2023-02-18T13:18:09;5.47;;;3.88;;
10645;SDS011;5371;49.782;9.932;2023-02-18T13:20:39;5.88;;;3.88;;
10645;SDS011;5371;49.782;9.932;2023-02-18T13:23:11;5.40;;;4.25;;
10645;SDS011;5371;49.782;9.932;2023-02-18T13:25:44;5.05;;;3.78;;
10645;SDS011;5371;49.782;9.932;2023-02-18T13:28:17;5.70;;;3.83;;
10645;SDS011;5371;49.782;9.932;2023-02-18T13:30:50;5.03;;;3.35;;
10645;SDS011;5371;49.782;9.932;2023-02-18T13:33:27;4.65;;;3.95;;
10645;SDS011;5371;49.782;9.932;2023-02-18T13:36:04;5.88;;;3.80;;
10645;SDS011;5371;49.782;9.932;2023-02-18T13:38:47;4.65;;;3.65;;
10645;SDS011;5371;49.782;9.932;2023-02-18T13:41:19;4.82;;;4.07;;
10645;SDS011;5371;49.782;9.932;2023-02-18T13:43:46;6.75;;;3.92;;
10645;SDS011;5371;49.782;9.932;2023-02-18T13:46:14;4.78;;;3.75;;
10645;SDS011;5371;49.782;9.932;2023-02-18T13:48:46;6.78;;;4.10;;
10645;SDS011;5371;49.782;9.932;2023-02-18T13:51:16;5.18;;;3.80;;
10645;SDS011;5371;49.782;9.932;2023-02-18T13:53:55;3.80;;;2.72;;
10645;SDS011;5371;49.782;9.932;2023-02-18T13:56:27;6.80;;;3.85;;
10645;SDS011;5371;49.782;9.932;2023-02-18T13:58:58;5.43;;;3.70;;
10645;SDS011;5371;49.782;9.932;2023-02-18T14:01:36;4.07;;;3.17;;
10645;SDS011;5371;49.782;9.932;2023-02-18T14:10:25;3.75;;;2.75;;
10645;SDS011;5371;49.782;9.932;2023-02-18T14:13:01;5.60;;;3.80;;
10645;SDS011;5371;49.782;9.932;2023-02-18T14:15:58;5.55;;;4.18;;
10645;SDS011;5371;49.782;9.932;2023-02-18T14:18:33;5.28;;;4.00;;
10645;SDS011;5371;49.782;9.932;2023-02-18T14:21:20;6.60;;;4.10;;
10645;SDS011;5371;49.782;9.932;2023-02-18T14:23:57;4.63;;;3.80;;
10645;SDS011;5371;49.782;9.932;2023-02-18T14:26:27;4.38;;;3.90;;
10645;SDS011;5371;49.782;9.932;2023-02-18T14:28:59;5.25;;;4.32;;
10645;SDS011;5371;49.782;9.932;2023-02-18T14:31:35;5.20;;;3.70;;
10645;SDS011;5371;49.782;9.932;2023-02-18T14:34:29;4.38;;;3.95;;
10645;SDS011;5371;49.782;9.932;2023-02-18T14:40:32;5.80;;;4.30;;
10645;SDS011;5371;49.782;9.932;2023-02-18T14:43:16;5.38;;;4.32;;
10645;SDS011;5371;49.782;9.932;2023-02-18T14:46:02;4.95;;;4.28;;
10645;SDS011;5371;49.782;9.932;2023-02-18T14:48:40;5.65;;;4.30;;
10645;SDS011;5371;49.782;9.932;2023-02-18T14:51:19;6.03;;;4.32;;
10645;SDS011;5371;49.782;9.932;2023-02-18T14:53:49;5.90;;;4.47;;
10645;SDS011;5371;49.782;9.932;2023-02-18T14:56:19;4.90;;;4.38;;
10645;SDS011;5371;49.782;9.932;2023-02-18T14:58:47;4.57;;;4.07;;
10645;SDS011;5371;49.782;9.932;2023-02-18T15:01:20;5.88;;;4.93;;
10645;SDS011;5371;49.782;9.932;2023-02-18T15:03:50;4.72;;;4.30;;
10645;SDS011;5371;49.782;9.932;2023-02-18T15:06:23;6.80;;;4.63;;
10645;SDS011;5371;49.782;9.932;2023-02-18T15:08:51;5.15;;;4.65;;
10645;SDS011;5371;49.782;9.932;2023-02-18T15:11:19;6.65;;;4.63;;
10645;SDS011;5371;49.782;9.932;2023-02-18T15:13:48;6.65;;;4.80;;
10645;SDS011;5371;49.782;9.932;2023-02-18T15:16:17;6.65;;;5.28;;
10645;SDS011;5371;49.782;9.932;2023-02-18T15:18:57;7.82;;;4.90;;
10645;SDS011;5371;49.782;9.932;2023-02-18T15:21:26;6.22;;;4.75;;
10645;SDS011;5371;49.782;9.932;2023-02-18T15:24:04;8.73;;;5.18;;
10645;SDS011;5371;49.782;9.932;2023-02-18T15:26:34;5.57;;;4.55;;
10645;SDS011;5371;49.782;9.932;2023-02-18T15:29:03;5.93;;;4.93;;
10645;SDS011;5371;49.782;9.932;2023-02-18T15:31:34;5.93;;;4.80;;
10645;SDS011;5371;49.782;9.932;2023-02-18T15:34:12;6.88;;;4.75;;
10645;SDS011;5371;49.782;9.932;2023-02-18T15:36:52;5.53;;;4.90;;
10645;SDS011;5371;49.782;9.932;2023-02-18T15:39:19;6.07;;;4.72;;
10645;SDS011;5371;49.782;9.932;2023-02-18T15:41:50;5.57;;;4.75;;
10645;SDS011;5371;49.782;9.932;2023-02-18T15:44:19;6.00;;;5.00;;
10645;SDS011;5371;49.782;9.932;2023-02-18T15:46:50;5.05;;;4.30;;
10645;SDS011;5371;49.782;9.932;2023-02-18T15:49:18;5.35;;;4.85;;